sensor_id;sensor_type;location;lat;lon;timestamp;temperature;humidity
39277;DHT22;63149;48.086;-1.606;2023-07-13T05:02:34;16.80;99.90
39277;DHT22;63149;48.086;-1.606;2023-07-13T05:05:01;16.80;99.90
39277;DHT22;63149;48.086;-1.606;2023-07-13T05:07:29;16.80;99.90
39277;DHT22;63149;48.086;-1.606;2023-07-13T05:09:58;16.80;99.90
39277;DHT22;63149;48.086;-1.606;2023-07-13T05:12:25;16.80;99.90
39277;DHT22;63149;48.086;-1.606;2023-07-13T05:14:52;16.80;99.90
39277;DHT22;63149;48.086;-1.606;2023-07-13T05:17:19;16.80;99.90
39277;DHT22;63149;48.086;-1.606;2023-07-13T05:19:47;16.80;99.90
39277;DHT22;63149;48.086;-1.606;2023-07-13T05:22:14;16.80;99.90
39277;DHT22;63149;48.086;-1.606;2023-07-13T05:24:41;16.80;99.90
39277;DHT22;63149;48.086;-1.606;2023-07-13T05:27:08;16.80;99.90
39277;DHT22;63149;48.086;-1.606;2023-07-13T05:29:35;16.80;99.90
39277;DHT22;63149;48.086;-1.606;2023-07-13T05:32:02;16.80;99.90
39277;DHT22;63149;48.086;-1.606;2023-07-13T05:34:29;16.80;99.90
39277;DHT22;63149;48.086;-1.606;2023-07-13T05:36:57;16.90;99.90
39277;DHT22;63149;48.086;-1.606;2023-07-13T05:39:24;16.80;99.90
39277;DHT22;63149;48.086;-1.606;2023-07-13T05:41:51;16.90;99.90
39277;DHT22;63149;48.086;-1.606;2023-07-13T05:44:18;16.90;99.90
39277;DHT22;63149;48.086;-1.606;2023-07-13T05:46:46;16.90;99.90
39277;DHT22;63149;48.086;-1.606;2023-07-13T05:49:12;16.90;99.90
39277;DHT22;63149;48.086;-1.606;2023-07-13T05:51:39;16.90;99.90
39277;DHT22;63149;48.086;-1.606;2023-07-13T05:54:08;16.90;99.90
39277;DHT22;63149;48.086;-1.606;2023-07-13T05:56:35;17.00;99.90
39277;DHT22;63149;48.086;-1.606;2023-07-13T05:59:01;16.90;99.90
39277;DHT22;63149;48.086;-1.606;2023-07-13T06:01:30;16.90;99.90
39277;DHT22;63149;48.086;-1.606;2023-07-13T06:03:57;16.90;99.90
39277;DHT22;63149;48.086;-1.606;2023-07-13T06:06:24;16.90;99.90
39277;DHT22;63149;48.086;-1.606;2023-07-13T06:08:51;16.90;99.90
39277;DHT22;63149;48.086;-1.606;2023-07-13T06:11:21;17.00;99.90
39277;DHT22;63149;48.086;-1.606;2023-07-13T06:13:48;16.90;99.90
39277;DHT22;63149;48.086;-1.606;2023-07-13T06:16:15;16.90;99.90
39277;DHT22;63149;48.086;-1.606;2023-07-13T06:18:42;16.90;99.90
39277;DHT22;63149;48.086;-1.606;2023-07-13T06:21:12;17.00;99.90
39277;DHT22;63149;48.086;-1.606;2023-07-13T06:23:39;17.00;99.90
39277;DHT22;63149;48.086;-1.606;2023-07-13T06:26:06;16.90;99.90
39277;DHT22;63149;48.086;-1.606;2023-07-13T06:28:35;17.00;99.90
39277;DHT22;63149;48.086;-1.606;2023-07-13T06:31:05;17.00;99.90
39277;DHT22;63149;48.086;-1.606;2023-07-13T06:33:32;17.10;99.90
39277;DHT22;63149;48.086;-1.606;2023-07-13T06:35:59;17.10;99.90
39277;DHT22;63149;48.086;-1.606;2023-07-13T06:38:26;17.10;99.90
39277;DHT22;63149;48.086;-1.606;2023-07-13T06:40:53;17.10;99.90
39277;DHT22;63149;48.086;-1.606;2023-07-13T06:43:20;17.10;99.90
39277;DHT22;63149;48.086;-1.606;2023-07-13T06:45:48;17.20;99.90
39277;DHT22;63149;48.086;-1.606;2023-07-13T06:48:17;17.20;99.90
39277;DHT22;63149;48.086;-1.606;2023-07-13T06:50:44;17.20;99.90
39277;DHT22;63149;48.086;-1.606;2023-07-13T06:53:12;17.30;99.90
39277;DHT22;63149;48.086;-1.606;2023-07-13T06:55:39;17.40;99.90
39277;DHT22;63149;48.086;-1.606;2023-07-13T06:58:06;17.40;99.90
39277;DHT22;63149;48.086;-1.606;2023-07-13T07:00:33;17.40;99.90
39277;DHT22;63149;48.086;-1.606;2023-07-13T07:03:02;17.40;99.90
39277;DHT22;63149;48.086;-1.606;2023-07-13T07:05:29;17.50;99.90
39277;DHT22;63149;48.086;-1.606;2023-07-13T07:07:56;17.50;99.90
39277;DHT22;63149;48.086;-1.606;2023-07-13T07:10:23;17.60;99.90
39277;DHT22;63149;48.086;-1.606;2023-07-13T07:12:50;17.60;99.90
39277;DHT22;63149;48.086;-1.606;2023-07-13T07:15:17;17.70;99.90
39277;DHT22;63149;48.086;-1.606;2023-07-13T07:17:44;17.70;99.90
39277;DHT22;63149;48.086;-1.606;2023-07-13T07:20:13;17.70;99.90
39277;DHT22;63149;48.086;-1.606;2023-07-13T07:22:40;17.70;99.90
39277;DHT22;63149;48.086;-1.606;2023-07-13T07:25:07;17.70;99.90
39277;DHT22;63149;48.086;-1.606;2023-07-13T07:27:34;17.80;99.90
39277;DHT22;63149;48.086;-1.606;2023-07-13T07:30:01;17.80;99.90
39277;DHT22;63149;48.086;-1.606;2023-07-13T07:32:29;17.80;99.90
39277;DHT22;63149;48.086;-1.606;2023-07-13T07:34:57;17.80;99.90
39277;DHT22;63149;48.086;-1.606;2023-07-13T07:37:25;17.80;99.90
39277;DHT22;63149;48.086;-1.606;2023-07-13T07:39:52;17.80;99.90
39277;DHT22;63149;48.086;-1.606;2023-07-13T07:42:19;17.80;99.90
39277;DHT22;63149;48.086;-1.606;2023-07-13T07:44:46;17.90;99.90
39277;DHT22;63149;48.086;-1.606;2023-07-13T07:47:13;17.90;99.90
39277;DHT22;63149;48.086;-1.606;2023-07-13T07:49:40;17.90;99.90
39277;DHT22;63149;48.086;-1.606;2023-07-13T07:52:08;17.90;99.90
39277;DHT22;63149;48.086;-1.606;2023-07-13T07:54:36;17.90;99.90
39277;DHT22;63149;48.086;-1.606;2023-07-13T07:57:03;17.90;99.90
39277;DHT22;63149;48.086;-1.606;2023-07-13T07:59:30;18.00;99.90
39277;DHT22;63149;48.086;-1.606;2023-07-13T08:01:57;18.10;99.90
39277;DHT22;63149;48.086;-1.606;2023-07-13T08:04:24;18.10;99.90
39277;DHT22;63149;48.086;-1.606;2023-07-13T08:06:51;18.20;99.90
39277;DHT22;63149;48.086;-1.606;2023-07-13T08:09:18;18.20;99.90
39277;DHT22;63149;48.086;-1.606;2023-07-13T08:11:46;18.30;99.90
39277;DHT22;63149;48.086;-1.606;2023-07-13T08:14:13;18.40;99.90
39277;DHT22;63149;48.086;-1.606;2023-07-13T08:16:42;18.40;99.90
39277;DHT22;63149;48.086;-1.606;2023-07-13T08:19:09;18.50;99.90
39277;DHT22;63149;48.086;-1.606;2023-07-13T08:21:37;18.60;99.90
39277;DHT22;63149;48.086;-1.606;2023-07-13T08:24:04;18.70;99.90
39277;DHT22;63149;48.086;-1.606;2023-07-13T08:26:31;18.80;99.90
39277;DHT22;63149;48.086;-1.606;2023-07-13T08:28:59;18.90;99.90
39277;DHT22;63149;48.086;-1.606;2023-07-13T08:31:26;18.90;99.90
39277;DHT22;63149;48.086;-1.606;2023-07-13T08:33:53;19.00;99.90
39277;DHT22;63149;48.086;-1.606;2023-07-13T08:36:20;19.10;99.90
39277;DHT22;63149;48.086;-1.606;2023-07-13T08:38:47;19.20;99.90
39277;DHT22;63149;48.086;-1.606;2023-07-13T08:41:16;19.30;99.90
39277;DHT22;63149;48.086;-1.606;2023-07-13T08:43:46;19.50;99.90
39277;DHT22;63149;48.086;-1.606;2023-07-13T08:46:18;19.70;99.90
39277;DHT22;63149;48.086;-1.606;2023-07-13T08:48:48;19.80;99.90
39277;DHT22;63149;48.086;-1.606;2023-07-13T08:51:21;20.10;99.90
39277;DHT22;63149;48.086;-1.606;2023-07-13T08:53:52;20.20;99.90
39277;DHT22;63149;48.086;-1.606;2023-07-13T08:56:21;20.30;99.90
39277;DHT22;63149;48.086;-1.606;2023-07-13T08:58:53;20.50;99.90
39277;DHT22;63149;48.086;-1.606;2023-07-13T09:01:28;20.60;99.90
39277;DHT22;63149;48.086;-1.606;2023-07-13T09:06:36;20.80;99.90
39277;DHT22;63149;48.086;-1.606;2023-07-13T09:09:10;21.30;99.90
39277;DHT22;63149;48.086;-1.606;2023-07-13T09:11:47;21.40;99.90
39277;DHT22;63149;48.086;-1.606;2023-07-13T09:14:31;21.50;99.90
39277;DHT22;63149;48.086;-1.606;2023-07-13T09:17:03;21.60;99.90
39277;DHT22;63149;48.086;-1.606;2023-07-13T09:19:32;21.90;99.90
39277;DHT22;63149;48.086;-1.606;2023-07-13T09:22:02;22.10;99.90
39277;DHT22;63149;48.086;-1.606;2023-07-13T09:24:36;22.20;99.90
39277;DHT22;63149;48.086;-1.606;2023-07-13T09:27:12;22.30;99.90
39277;DHT22;63149;48.086;-1.606;2023-07-13T09:29:47;22.40;99.90
39277;DHT22;63149;48.086;-1.606;2023-07-13T09:32:18;22.40;99.90
39277;DHT22;63149;48.086;-1.606;2023-07-13T09:34:52;22.50;99.90
39277;DHT22;63149;48.086;-1.606;2023-07-13T09:37:21;22.60;99.90
39277;DHT22;63149;48.086;-1.606;2023-07-13T09:39:49;22.60;99.90
39277;DHT22;63149;48.086;-1.606;2023-07-13T09:42:20;22.60;99.90
39277;DHT22;63149;48.086;-1.606;2023-07-13T09:44:53;22.70;99.90
39277;DHT22;63149;48.086;-1.606;2023-07-13T09:47:24;22.90;99.90
39277;DHT22;63149;48.086;-1.606;2023-07-13T09:49:56;22.90;99.90
39277;DHT22;63149;48.086;-1.606;2023-07-13T09:52:24;22.90;99.90
39277;DHT22;63149;48.086;-1.606;2023-07-13T09:54:52;22.90;99.90
39277;DHT22;63149;48.086;-1.606;2023-07-13T09:57:25;22.80;99.90
39277;DHT22;63149;48.086;-1.606;2023-07-13T09:59:54;22.70;99.90
39277;DHT22;63149;48.086;-1.606;2023-07-13T10:02:27;22.60;99.90
39277;DHT22;63149;48.086;-1.606;2023-07-13T10:04:59;22.70;99.90
39277;DHT22;63149;48.086;-1.606;2023-07-13T10:07:27;22.70;99.90
39277;DHT22;63149;48.086;-1.606;2023-07-13T10:09:55;22.70;99.90
39277;DHT22;63149;48.086;-1.606;2023-07-13T10:12:23;22.70;99.90
39277;DHT22;63149;48.086;-1.606;2023-07-13T10:14:52;22.60;99.90
39277;DHT22;63149;48.086;-1.606;2023-07-13T10:17:27;22.60;99.90
39277;DHT22;63149;48.086;-1.606;2023-07-13T10:19:59;22.50;99.90
39277;DHT22;63149;48.086;-1.606;2023-07-13T10:22:31;22.50;99.90
39277;DHT22;63149;48.086;-1.606;2023-07-13T10:25:00;22.50;99.90
39277;DHT22;63149;48.086;-1.606;2023-07-13T10:27:32;22.60;99.90
39277;DHT22;63149;48.086;-1.606;2023-07-13T10:30:04;22.70;99.90
39277;DHT22;63149;48.086;-1.606;2023-07-13T10:32:37;22.90;99.90
39277;DHT22;63149;48.086;-1.606;2023-07-13T10:35:05;23.10;99.90
39277;DHT22;63149;48.086;-1.606;2023-07-13T10:37:41;23.30;99.90
39277;DHT22;63149;48.086;-1.606;2023-07-13T10:40:13;23.50;99.90
39277;DHT22;63149;48.086;-1.606;2023-07-13T10:42:43;23.60;99.90
39277;DHT22;63149;48.086;-1.606;2023-07-13T10:45:14;23.80;99.90
39277;DHT22;63149;48.086;-1.606;2023-07-13T10:47:43;23.90;99.90
39277;DHT22;63149;48.086;-1.606;2023-07-13T10:50:17;24.00;99.90
39277;DHT22;63149;48.086;-1.606;2023-07-13T10:52:47;24.10;99.90
39277;DHT22;63149;48.086;-1.606;2023-07-13T10:55:34;24.10;99.90
39277;DHT22;63149;48.086;-1.606;2023-07-13T10:58:03;24.30;99.90
39277;DHT22;63149;48.086;-1.606;2023-07-13T11:00:46;24.30;99.90
39277;DHT22;63149;48.086;-1.606;2023-07-13T11:03:18;24.30;99.90
39277;DHT22;63149;48.086;-1.606;2023-07-13T11:05:49;24.30;99.90
39277;DHT22;63149;48.086;-1.606;2023-07-13T11:08:20;24.40;99.90
39277;DHT22;63149;48.086;-1.606;2023-07-13T11:10:53;24.50;99.90
39277;DHT22;63149;48.086;-1.606;2023-07-13T11:13:56;24.50;99.90
39277;DHT22;63149;48.086;-1.606;2023-07-13T11:16:42;24.50;99.90
39277;DHT22;63149;48.086;-1.606;2023-07-13T11:19:38;24.40;99.90
39277;DHT22;63149;48.086;-1.606;2023-07-13T11:22:40;24.40;99.90
39277;DHT22;63149;48.086;-1.606;2023-07-13T11:25:26;24.40;99.90
39277;DHT22;63149;48.086;-1.606;2023-07-13T11:28:11;24.40;99.90
39277;DHT22;63149;48.086;-1.606;2023-07-13T11:30:40;24.30;99.90
39277;DHT22;63149;48.086;-1.606;2023-07-13T11:33:14;24.20;99.90
39277;DHT22;63149;48.086;-1.606;2023-07-13T11:35:49;24.30;99.90
39277;DHT22;63149;48.086;-1.606;2023-07-13T11:38:20;24.30;99.90
39277;DHT22;63149;48.086;-1.606;2023-07-13T11:40:50;24.20;99.90
39277;DHT22;63149;48.086;-1.606;2023-07-13T11:43:17;24.20;99.90
39277;DHT22;63149;48.086;-1.606;2023-07-13T11:45:44;24.20;99.90
39277;DHT22;63149;48.086;-1.606;2023-07-13T11:48:23;24.20;99.90
39277;DHT22;63149;48.086;-1.606;2023-07-13T11:51:02;24.20;99.90
39277;DHT22;63149;48.086;-1.606;2023-07-13T11:53:36;24.30;99.90
39277;DHT22;63149;48.086;-1.606;2023-07-13T11:56:05;24.30;99.90
39277;DHT22;63149;48.086;-1.606;2023-07-13T11:58:33;24.30;99.90
39277;DHT22;63149;48.086;-1.606;2023-07-13T12:01:02;24.20;99.90
39277;DHT22;63149;48.086;-1.606;2023-07-13T12:03:30;24.20;99.90
39277;DHT22;63149;48.086;-1.606;2023-07-13T12:06:01;24.10;99.90
39277;DHT22;63149;48.086;-1.606;2023-07-13T12:08:29;24.00;99.90
39277;DHT22;63149;48.086;-1.606;2023-07-13T12:11:11;23.90;99.90
39277;DHT22;63149;48.086;-1.606;2023-07-13T12:13:41;23.80;99.90
39277;DHT22;63149;48.086;-1.606;2023-07-13T12:16:14;23.90;99.90
39277;DHT22;63149;48.086;-1.606;2023-07-13T12:18:43;23.90;99.90
39277;DHT22;63149;48.086;-1.606;2023-07-13T12:21:18;23.90;99.90
39277;DHT22;63149;48.086;-1.606;2023-07-13T12:23:48;23.90;99.90
39277;DHT22;63149;48.086;-1.606;2023-07-13T12:26:17;23.90;99.90
39277;DHT22;63149;48.086;-1.606;2023-07-13T12:28:46;23.90;99.90
39277;DHT22;63149;48.086;-1.606;2023-07-13T12:31:29;24.00;99.90
39277;DHT22;63149;48.086;-1.606;2023-07-13T12:33:58;24.10;99.90
39277;DHT22;63149;48.086;-1.606;2023-07-13T12:36:30;24.10;99.90
39277;DHT22;63149;48.086;-1.606;2023-07-13T12:39:02;24.20;99.90
39277;DHT22;63149;48.086;-1.606;2023-07-13T12:41:31;24.20;99.90
39277;DHT22;63149;48.086;-1.606;2023-07-13T12:43:59;24.20;99.90
39277;DHT22;63149;48.086;-1.606;2023-07-13T12:46:27;24.20;99.90
39277;DHT22;63149;48.086;-1.606;2023-07-13T12:48:57;24.20;99.90
39277;DHT22;63149;48.086;-1.606;2023-07-13T12:51:27;24.40;99.90
39277;DHT22;63149;48.086;-1.606;2023-07-13T12:53:58;24.40;99.90
39277;DHT22;63149;48.086;-1.606;2023-07-13T12:56:33;24.50;99.90
39277;DHT22;63149;48.086;-1.606;2023-07-13T12:59:02;24.60;99.90
39277;DHT22;63149;48.086;-1.606;2023-07-13T13:01:35;24.70;99.90
39277;DHT22;63149;48.086;-1.606;2023-07-13T13:04:04;24.60;99.90
39277;DHT22;63149;48.086;-1.606;2023-07-13T13:06:33;24.50;99.90
39277;DHT22;63149;48.086;-1.606;2023-07-13T13:09:01;24.50;99.90
39277;DHT22;63149;48.086;-1.606;2023-07-13T13:11:30;24.50;99.90
39277;DHT22;63149;48.086;-1.606;2023-07-13T13:13:58;24.50;99.90
39277;DHT22;63149;48.086;-1.606;2023-07-13T13:16:31;24.50;99.90
39277;DHT22;63149;48.086;-1.606;2023-07-13T13:19:03;24.60;99.90
39277;DHT22;63149;48.086;-1.606;2023-07-13T13:21:33;24.60;99.90
39277;DHT22;63149;48.086;-1.606;2023-07-13T13:24:00;24.60;99.90
39277;DHT22;63149;48.086;-1.606;2023-07-13T13:26:27;24.70;99.90
39277;DHT22;63149;48.086;-1.606;2023-07-13T13:28:54;24.70;99.90
39277;DHT22;63149;48.086;-1.606;2023-07-13T13:31:21;24.80;99.90
39277;DHT22;63149;48.086;-1.606;2023-07-13T13:33:48;24.70;99.90
39277;DHT22;63149;48.086;-1.606;2023-07-13T13:36:16;24.80;99.90
39277;DHT22;63149;48.086;-1.606;2023-07-13T13:38:44;24.80;99.90
39277;DHT22;63149;48.086;-1.606;2023-07-13T13:41:13;24.80;99.90
39277;DHT22;63149;48.086;-1.606;2023-07-13T13:43:41;24.90;99.90
39277;DHT22;63149;48.086;-1.606;2023-07-13T13:46:14;24.90;99.90
39277;DHT22;63149;48.086;-1.606;2023-07-13T13:48:43;25.00;99.90
39277;DHT22;63149;48.086;-1.606;2023-07-13T13:51:15;25.00;99.90
39277;DHT22;63149;48.086;-1.606;2023-07-13T13:53:44;25.00;99.90
39277;DHT22;63149;48.086;-1.606;2023-07-13T13:56:12;25.10;99.90
39277;DHT22;63149;48.086;-1.606;2023-07-13T13:58:39;25.00;99.90
39277;DHT22;63149;48.086;-1.606;2023-07-13T14:01:12;25.00;99.90
39277;DHT22;63149;48.086;-1.606;2023-07-13T14:03:40;25.00;99.90
39277;DHT22;63149;48.086;-1.606;2023-07-13T14:06:08;25.00;99.90
39277;DHT22;63149;48.086;-1.606;2023-07-13T14:08:37;25.10;99.90
39277;DHT22;63149;48.086;-1.606;2023-07-13T14:11:07;25.20;99.90
39277;DHT22;63149;48.086;-1.606;2023-07-13T14:13:41;25.10;99.90
39277;DHT22;63149;48.086;-1.606;2023-07-13T14:16:11;25.10;99.90
39277;DHT22;63149;48.086;-1.606;2023-07-13T14:18:38;25.10;99.90
39277;DHT22;63149;48.086;-1.606;2023-07-13T14:21:11;25.20;99.90
39277;DHT22;63149;48.086;-1.606;2023-07-13T14:23:39;25.20;99.90
39277;DHT22;63149;48.086;-1.606;2023-07-13T14:26:13;25.20;99.90
39277;DHT22;63149;48.086;-1.606;2023-07-13T14:28:42;25.20;99.90
39277;DHT22;63149;48.086;-1.606;2023-07-13T14:31:10;25.10;99.90
39277;DHT22;63149;48.086;-1.606;2023-07-13T14:33:37;25.20;99.90
39277;DHT22;63149;48.086;-1.606;2023-07-13T14:36:27;25.20;99.90
39277;DHT22;63149;48.086;-1.606;2023-07-13T14:38:54;25.30;99.90
39277;DHT22;63149;48.086;-1.606;2023-07-13T14:41:24;25.30;99.90
39277;DHT22;63149;48.086;-1.606;2023-07-13T14:43:51;25.20;99.90
39277;DHT22;63149;48.086;-1.606;2023-07-13T14:46:36;25.20;99.90
39277;DHT22;63149;48.086;-1.606;2023-07-13T14:49:04;25.20;99.90
39277;DHT22;63149;48.086;-1.606;2023-07-13T14:51:33;25.10;99.90
39277;DHT22;63149;48.086;-1.606;2023-07-13T14:54:03;25.10;99.90
39277;DHT22;63149;48.086;-1.606;2023-07-13T14:56:31;25.00;99.90
39277;DHT22;63149;48.086;-1.606;2023-07-13T14:58:58;25.00;99.90
39277;DHT22;63149;48.086;-1.606;2023-07-13T15:01:25;25.00;99.90
39277;DHT22;63149;48.086;-1.606;2023-07-13T15:03:53;25.00;99.90
39277;DHT22;63149;48.086;-1.606;2023-07-13T15:06:20;24.90;99.90
39277;DHT22;63149;48.086;-1.606;2023-07-13T15:08:47;24.90;99.90
39277;DHT22;63149;48.086;-1.606;2023-07-13T15:11:14;24.90;99.90
39277;DHT22;63149;48.086;-1.606;2023-07-13T15:13:43;24.90;99.90
39277;DHT22;63149;48.086;-1.606;2023-07-13T15:16:16;24.90;99.90
39277;DHT22;63149;48.086;-1.606;2023-07-13T15:18:44;24.90;99.90
39277;DHT22;63149;48.086;-1.606;2023-07-13T15:21:16;25.00;99.90
39277;DHT22;63149;48.086;-1.606;2023-07-13T15:23:45;25.00;99.90
39277;DHT22;63149;48.086;-1.606;2023-07-13T15:26:13;24.90;99.90
39277;DHT22;63149;48.086;-1.606;2023-07-13T15:28:43;24.90;99.90
39277;DHT22;63149;48.086;-1.606;2023-07-13T15:31:19;24.80;99.90
39277;DHT22;63149;48.086;-1.606;2023-07-13T15:33:47;24.80;99.90
39277;DHT22;63149;48.086;-1.606;2023-07-13T15:36:15;24.80;99.90
39277;DHT22;63149;48.086;-1.606;2023-07-13T15:38:42;24.90;99.90
39277;DHT22;63149;48.086;-1.606;2023-07-13T15:41:16;25.10;99.90
39277;DHT22;63149;48.086;-1.606;2023-07-13T15:43:45;24.90;99.90
39277;DHT22;63149;48.086;-1.606;2023-07-13T15:46:12;24.80;99.90
39277;DHT22;63149;48.086;-1.606;2023-07-13T15:48:39;25.20;99.90
39277;DHT22;63149;48.086;-1.606;2023-07-13T15:51:11;25.00;99.90
39277;DHT22;63149;48.086;-1.606;2023-07-13T15:53:39;24.90;99.90
39277;DHT22;63149;48.086;-1.606;2023-07-13T15:56:18;24.80;99.90
39277;DHT22;63149;48.086;-1.606;2023-07-13T15:58:46;24.90;99.90
39277;DHT22;63149;48.086;-1.606;2023-07-13T16:01:13;24.90;99.90
39277;DHT22;63149;48.086;-1.606;2023-07-13T16:03:40;25.00;99.90
39277;DHT22;63149;48.086;-1.606;2023-07-13T16:06:13;25.00;99.90
39277;DHT22;63149;48.086;-1.606;2023-07-13T16:08:42;25.00;99.90
39277;DHT22;63149;48.086;-1.606;2023-07-13T16:11:15;25.00;99.90
39277;DHT22;63149;48.086;-1.606;2023-07-13T16:13:43;25.00;99.90
39277;DHT22;63149;48.086;-1.606;2023-07-13T16:16:13;25.00;99.90
39277;DHT22;63149;48.086;-1.606;2023-07-13T16:18:40;25.00;99.90
39277;DHT22;63149;48.086;-1.606;2023-07-13T16:21:11;24.90;99.90
39277;DHT22;63149;48.086;-1.606;2023-07-13T16:23:38;25.00;99.90
39277;DHT22;63149;48.086;-1.606;2023-07-13T16:26:21;24.80;99.90
39277;DHT22;63149;48.086;-1.606;2023-07-13T16:28:48;24.90;99.90
39277;DHT22;63149;48.086;-1.606;2023-07-13T16:31:18;24.80;99.90
39277;DHT22;63149;48.086;-1.606;2023-07-13T16:33:44;24.80;99.90
39277;DHT22;63149;48.086;-1.606;2023-07-13T16:36:12;24.80;99.90
39277;DHT22;63149;48.086;-1.606;2023-07-13T16:38:39;24.80;99.90
39277;DHT22;63149;48.086;-1.606;2023-07-13T16:41:06;24.70;99.90
39277;DHT22;63149;48.086;-1.606;2023-07-13T16:43:35;24.80;99.90
39277;DHT22;63149;48.086;-1.606;2023-07-13T16:46:02;24.70;99.90
39277;DHT22;63149;48.086;-1.606;2023-07-13T16:48:31;24.70;99.90
39277;DHT22;63149;48.086;-1.606;2023-07-13T16:50:58;24.60;99.90
39277;DHT22;63149;48.086;-1.606;2023-07-13T16:53:26;24.50;99.90
39277;DHT22;63149;48.086;-1.606;2023-07-13T16:55:54;24.50;99.90
39277;DHT22;63149;48.086;-1.606;2023-07-13T16:58:22;24.50;99.90
39277;DHT22;63149;48.086;-1.606;2023-07-13T17:00:51;24.50;99.90
39277;DHT22;63149;48.086;-1.606;2023-07-13T17:03:18;24.50;99.90
39277;DHT22;63149;48.086;-1.606;2023-07-13T17:05:47;24.50;99.90
39277;DHT22;63149;48.086;-1.606;2023-07-13T17:08:17;24.50;99.90
39277;DHT22;63149;48.086;-1.606;2023-07-13T17:10:47;24.40;99.90
39277;DHT22;63149;48.086;-1.606;2023-07-13T17:13:15;24.50;99.90
39277;DHT22;63149;48.086;-1.606;2023-07-13T17:15:44;24.40;99.90
39277;DHT22;63149;48.086;-1.606;2023-07-13T17:18:12;24.40;99.90
39277;DHT22;63149;48.086;-1.606;2023-07-13T17:20:41;24.40;99.90
39277;DHT22;63149;48.086;-1.606;2023-07-13T17:23:14;24.30;99.90
39277;DHT22;63149;48.086;-1.606;2023-07-13T17:25:42;24.30;99.90
39277;DHT22;63149;48.086;-1.606;2023-07-13T17:28:09;24.30;99.90
39277;DHT22;63149;48.086;-1.606;2023-07-13T17:30:36;24.30;99.90
39277;DHT22;63149;48.086;-1.606;2023-07-13T17:33:04;24.20;99.90
39277;DHT22;63149;48.086;-1.606;2023-07-13T17:35:35;24.30;99.90
39277;DHT22;63149;48.086;-1.606;2023-07-13T17:38:03;24.20;99.90
39277;DHT22;63149;48.086;-1.606;2023-07-13T17:40:32;24.20;99.90
39277;DHT22;63149;48.086;-1.606;2023-07-13T17:43:00;24.20;99.90
39277;DHT22;63149;48.086;-1.606;2023-07-13T17:45:28;24.20;99.90
39277;DHT22;63149;48.086;-1.606;2023-07-13T17:47:56;24.20;99.90
39277;DHT22;63149;48.086;-1.606;2023-07-13T17:50:27;24.20;99.90
39277;DHT22;63149;48.086;-1.606;2023-07-13T17:53:01;24.20;99.90
39277;DHT22;63149;48.086;-1.606;2023-07-13T17:55:33;24.20;99.90
39277;DHT22;63149;48.086;-1.606;2023-07-13T17:58:00;24.10;99.90
39277;DHT22;63149;48.086;-1.606;2023-07-13T18:00:31;24.10;99.90
39277;DHT22;63149;48.086;-1.606;2023-07-13T18:03:04;24.10;99.90
39277;DHT22;63149;48.086;-1.606;2023-07-13T18:05:33;24.10;99.90
39277;DHT22;63149;48.086;-1.606;2023-07-13T18:08:01;24.00;99.90
39277;DHT22;63149;48.086;-1.606;2023-07-13T18:10:33;24.00;99.90
39277;DHT22;63149;48.086;-1.606;2023-07-13T18:13:00;23.90;99.90
39277;DHT22;63149;48.086;-1.606;2023-07-13T18:15:29;23.90;99.90
39277;DHT22;63149;48.086;-1.606;2023-07-13T18:17:59;23.90;99.90
39277;DHT22;63149;48.086;-1.606;2023-07-13T18:20:29;23.80;99.90
39277;DHT22;63149;48.086;-1.606;2023-07-13T18:22:57;23.80;99.90
39277;DHT22;63149;48.086;-1.606;2023-07-13T18:25:25;23.80;99.90
39277;DHT22;63149;48.086;-1.606;2023-07-13T18:27:54;23.80;99.90
39277;DHT22;63149;48.086;-1.606;2023-07-13T18:30:22;23.80;99.90
39277;DHT22;63149;48.086;-1.606;2023-07-13T18:32:52;23.70;99.90
39277;DHT22;63149;48.086;-1.606;2023-07-13T18:35:28;23.70;99.90
39277;DHT22;63149;48.086;-1.606;2023-07-13T18:37:56;23.70;99.90
39277;DHT22;63149;48.086;-1.606;2023-07-13T18:40:23;23.60;99.90
39277;DHT22;63149;48.086;-1.606;2023-07-13T18:42:53;23.60;99.90
39277;DHT22;63149;48.086;-1.606;2023-07-13T18:45:21;23.60;99.90
39277;DHT22;63149;48.086;-1.606;2023-07-13T18:47:52;23.60;99.90
39277;DHT22;63149;48.086;-1.606;2023-07-13T18:50:24;23.60;99.90
39277;DHT22;63149;48.086;-1.606;2023-07-13T18:52:53;23.50;99.90
39277;DHT22;63149;48.086;-1.606;2023-07-13T18:55:22;23.50;99.90
39277;DHT22;63149;48.086;-1.606;2023-07-13T18:57:49;23.50;99.90
39277;DHT22;63149;48.086;-1.606;2023-07-13T19:00:22;23.50;99.90
39277;DHT22;63149;48.086;-1.606;2023-07-13T19:02:52;23.40;99.90
39277;DHT22;63149;48.086;-1.606;2023-07-13T19:05:21;23.30;99.90
39277;DHT22;63149;48.086;-1.606;2023-07-13T19:07:49;23.30;99.90
39277;DHT22;63149;48.086;-1.606;2023-07-13T19:10:18;23.30;99.90
39277;DHT22;63149;48.086;-1.606;2023-07-13T19:12:49;23.20;99.90
39277;DHT22;63149;48.086;-1.606;2023-07-13T19:15:21;23.20;99.90
39277;DHT22;63149;48.086;-1.606;2023-07-13T19:17:50;23.20;99.90
39277;DHT22;63149;48.086;-1.606;2023-07-13T19:20:18;23.20;99.90
39277;DHT22;63149;48.086;-1.606;2023-07-13T19:22:51;23.30;99.90
39277;DHT22;63149;48.086;-1.606;2023-07-13T19:25:20;23.20;99.90
39277;DHT22;63149;48.086;-1.606;2023-07-13T19:27:49;23.10;99.90
39277;DHT22;63149;48.086;-1.606;2023-07-13T19:30:17;23.20;99.90
39277;DHT22;63149;48.086;-1.606;2023-07-13T19:32:45;23.20;99.90
39277;DHT22;63149;48.086;-1.606;2023-07-13T19:35:13;23.20;99.90
39277;DHT22;63149;48.086;-1.606;2023-07-13T19:37:40;23.20;99.90
39277;DHT22;63149;48.086;-1.606;2023-07-13T19:40:16;23.10;99.90
39277;DHT22;63149;48.086;-1.606;2023-07-13T19:42:44;23.10;99.90
39277;DHT22;63149;48.086;-1.606;2023-07-13T19:45:16;23.00;99.90
39277;DHT22;63149;48.086;-1.606;2023-07-13T19:47:45;22.90;99.90
39277;DHT22;63149;48.086;-1.606;2023-07-13T19:50:14;23.00;99.90
39277;DHT22;63149;48.086;-1.606;2023-07-13T19:52:44;22.80;99.90
39277;DHT22;63149;48.086;-1.606;2023-07-13T19:55:13;22.80;99.90
39277;DHT22;63149;48.086;-1.606;2023-07-13T19:57:41;22.80;99.90
39277;DHT22;63149;48.086;-1.606;2023-07-13T20:00:16;22.70;99.90
39277;DHT22;63149;48.086;-1.606;2023-07-13T20:02:45;22.60;99.90
39277;DHT22;63149;48.086;-1.606;2023-07-13T20:05:14;22.60;99.90
39277;DHT22;63149;48.086;-1.606;2023-07-13T20:07:42;22.60;99.90
39277;DHT22;63149;48.086;-1.606;2023-07-13T20:10:22;22.60;99.90
39277;DHT22;63149;48.086;-1.606;2023-07-13T20:12:50;22.50;99.90
39277;DHT22;63149;48.086;-1.606;2023-07-13T20:15:20;22.50;99.90
39277;DHT22;63149;48.086;-1.606;2023-07-13T20:17:50;22.50;99.90
39277;DHT22;63149;48.086;-1.606;2023-07-13T20:20:26;22.50;99.90
39277;DHT22;63149;48.086;-1.606;2023-07-13T20:22:56;22.50;99.90
39277;DHT22;63149;48.086;-1.606;2023-07-13T20:25:25;22.50;99.90
39277;DHT22;63149;48.086;-1.606;2023-07-13T20:27:53;22.50;99.90
39277;DHT22;63149;48.086;-1.606;2023-07-13T20:30:22;22.50;99.90
39277;DHT22;63149;48.086;-1.606;2023-07-13T20:32:51;22.50;99.90
39277;DHT22;63149;48.086;-1.606;2023-07-13T20:35:28;22.50;99.90